sensor_id;sensor_type;location;lat;lon;timestamp;temperature;humidity
27200;DHT22;14714;48.106;11.546;2023-03-21T00:00:32;7.10;99.90
27200;DHT22;14714;48.106;11.546;2023-03-21T00:02:59;7.10;99.90
27200;DHT22;14714;48.106;11.546;2023-03-21T00:05:26;7.20;99.90
27200;DHT22;14714;48.106;11.546;2023-03-21T00:07:52;7.20;99.90
27200;DHT22;14714;48.106;11.546;2023-03-21T00:10:19;7.20;99.90
27200;DHT22;14714;48.106;11.546;2023-03-21T00:13:04;7.20;99.90
27200;DHT22;14714;48.106;11.546;2023-03-21T00:15:31;7.20;99.90
27200;DHT22;14714;48.106;11.546;2023-03-21T00:18:13;7.20;99.90
27200;DHT22;14714;48.106;11.546;2023-03-21T00:20:41;7.20;99.90
27200;DHT22;14714;48.106;11.546;2023-03-21T00:23:12;7.30;99.90
27200;DHT22;14714;48.106;11.546;2023-03-21T00:25:39;7.30;99.90
27200;DHT22;14714;48.106;11.546;2023-03-21T00:28:06;7.30;99.90
27200;DHT22;14714;48.106;11.546;2023-03-21T00:30:34;7.30;99.90
27200;DHT22;14714;48.106;11.546;2023-03-21T00:33:01;7.30;99.90
27200;DHT22;14714;48.106;11.546;2023-03-21T00:35:45;7.30;99.90
27200;DHT22;14714;48.106;11.546;2023-03-21T00:38:30;7.30;99.90
27200;DHT22;14714;48.106;11.546;2023-03-21T00:40:57;7.30;99.90
27200;DHT22;14714;48.106;11.546;2023-03-21T00:43:30;7.30;99.90
27200;DHT22;14714;48.106;11.546;2023-03-21T00:45:58;7.30;99.90
27200;DHT22;14714;48.106;11.546;2023-03-21T00:48:25;7.40;99.90
27200;DHT22;14714;48.106;11.546;2023-03-21T00:50:53;7.40;99.90
27200;DHT22;14714;48.106;11.546;2023-03-21T00:53:20;7.40;99.90
27200;DHT22;14714;48.106;11.546;2023-03-21T00:55:47;7.40;99.90
27200;DHT22;14714;48.106;11.546;2023-03-21T00:58:14;7.50;99.90
27200;DHT22;14714;48.106;11.546;2023-03-21T01:00:41;7.50;99.90
27200;DHT22;14714;48.106;11.546;2023-03-21T01:03:10;7.50;99.90
27200;DHT22;14714;48.106;11.546;2023-03-21T01:05:50;7.50;99.90
27200;DHT22;14714;48.106;11.546;2023-03-21T01:08:39;7.50;99.90
27200;DHT22;14714;48.106;11.546;2023-03-21T01:11:19;7.50;99.90
27200;DHT22;14714;48.106;11.546;2023-03-21T01:13:46;7.60;99.90
27200;DHT22;14714;48.106;11.546;2023-03-21T01:16:24;7.60;99.90
27200;DHT22;14714;48.106;11.546;2023-03-21T01:18:51;7.60;99.90
27200;DHT22;14714;48.106;11.546;2023-03-21T01:21:18;7.60;99.90
27200;DHT22;14714;48.106;11.546;2023-03-21T01:23:45;7.60;99.90
27200;DHT22;14714;48.106;11.546;2023-03-21T01:26:12;7.60;99.90
27200;DHT22;14714;48.106;11.546;2023-03-21T01:28:39;7.60;99.90
27200;DHT22;14714;48.106;11.546;2023-03-21T01:31:06;7.60;99.90
27200;DHT22;14714;48.106;11.546;2023-03-21T01:33:33;7.60;99.90
27200;DHT22;14714;48.106;11.546;2023-03-21T01:36:00;7.70;99.90
27200;DHT22;14714;48.106;11.546;2023-03-21T01:38:39;7.70;99.90
27200;DHT22;14714;48.106;11.546;2023-03-21T01:41:06;7.70;99.90
27200;DHT22;14714;48.106;11.546;2023-03-21T01:43:44;7.70;99.90
27200;DHT22;14714;48.106;11.546;2023-03-21T01:46:27;7.80;99.90
27200;DHT22;14714;48.106;11.546;2023-03-21T01:51:29;7.80;99.90
27200;DHT22;14714;48.106;11.546;2023-03-21T01:53:58;7.80;99.90
27200;DHT22;14714;48.106;11.546;2023-03-21T01:56:33;7.80;99.90
27200;DHT22;14714;48.106;11.546;2023-03-21T01:59:02;7.80;99.90
27200;DHT22;14714;48.106;11.546;2023-03-21T02:01:30;7.80;99.90
27200;DHT22;14714;48.106;11.546;2023-03-21T02:04:00;7.80;99.90
27200;DHT22;14714;48.106;11.546;2023-03-21T02:06:37;7.90;99.90
27200;DHT22;14714;48.106;11.546;2023-03-21T02:09:07;7.80;99.90
27200;DHT22;14714;48.106;11.546;2023-03-21T02:11:34;7.80;99.90
27200;DHT22;14714;48.106;11.546;2023-03-21T02:14:02;7.80;99.90
27200;DHT22;14714;48.106;11.546;2023-03-21T02:16:36;7.80;99.90
27200;DHT22;14714;48.106;11.546;2023-03-21T02:27:49;7.90;99.90
27200;DHT22;14714;48.106;11.546;2023-03-21T02:43:30;7.90;99.90
27200;DHT22;14714;48.106;11.546;2023-03-21T02:46:07;7.90;99.90
27200;DHT22;14714;48.106;11.546;2023-03-21T02:48:36;7.90;99.90
27200;DHT22;14714;48.106;11.546;2023-03-21T02:51:16;7.90;99.90
27200;DHT22;14714;48.106;11.546;2023-03-21T02:53:46;7.90;99.90
27200;DHT22;14714;48.106;11.546;2023-03-21T02:56:25;7.90;99.90
27200;DHT22;14714;48.106;11.546;2023-03-21T02:58:52;7.80;99.90
27200;DHT22;14714;48.106;11.546;2023-03-21T03:01:19;7.80;99.90
27200;DHT22;14714;48.106;11.546;2023-03-21T03:03:46;7.80;99.90
27200;DHT22;14714;48.106;11.546;2023-03-21T03:06:15;7.80;99.90
27200;DHT22;14714;48.106;11.546;2023-03-21T03:11:32;7.80;99.90
27200;DHT22;14714;48.106;11.546;2023-03-21T03:14:08;7.80;99.90
27200;DHT22;14714;48.106;11.546;2023-03-21T03:19:28;7.80;99.90
27200;DHT22;14714;48.106;11.546;2023-03-21T03:22:19;7.80;99.90
27200;DHT22;14714;48.106;11.546;2023-03-21T03:24:59;7.70;99.90
27200;DHT22;14714;48.106;11.546;2023-03-21T03:27:41;7.80;99.90
27200;DHT22;14714;48.106;11.546;2023-03-21T03:30:09;7.80;99.90
27200;DHT22;14714;48.106;11.546;2023-03-21T03:32:39;7.80;99.90
27200;DHT22;14714;48.106;11.546;2023-03-21T03:35:10;7.80;99.90
27200;DHT22;14714;48.106;11.546;2023-03-21T03:37:39;7.80;99.90
27200;DHT22;14714;48.106;11.546;2023-03-21T03:40:10;7.80;99.90
27200;DHT22;14714;48.106;11.546;2023-03-21T03:42:40;7.70;99.90
27200;DHT22;14714;48.106;11.546;2023-03-21T03:45:08;7.70;99.90
27200;DHT22;14714;48.106;11.546;2023-03-21T03:47:37;7.70;99.90
27200;DHT22;14714;48.106;11.546;2023-03-21T03:50:29;7.70;99.90
27200;DHT22;14714;48.106;11.546;2023-03-21T03:53:42;7.70;99.90
27200;DHT22;14714;48.106;11.546;2023-03-21T03:55:44;7.70;99.90
27200;DHT22;14714;48.106;11.546;2023-03-21T03:58:11;7.70;99.90
27200;DHT22;14714;48.106;11.546;2023-03-21T04:00:50;7.70;99.90
27200;DHT22;14714;48.106;11.546;2023-03-21T04:03:17;7.70;99.90
27200;DHT22;14714;48.106;11.546;2023-03-21T04:05:44;7.70;99.90
27200;DHT22;14714;48.106;11.546;2023-03-21T04:08:14;7.70;99.90
27200;DHT22;14714;48.106;11.546;2023-03-21T04:10:41;7.70;99.90
27200;DHT22;14714;48.106;11.546;2023-03-21T04:13:08;7.70;99.90
27200;DHT22;14714;48.106;11.546;2023-03-21T04:15:36;7.70;99.90
27200;DHT22;14714;48.106;11.546;2023-03-21T04:18:02;7.70;99.90
27200;DHT22;14714;48.106;11.546;2023-03-21T04:20:29;7.70;99.90
27200;DHT22;14714;48.106;11.546;2023-03-21T04:23:03;7.70;99.90
27200;DHT22;14714;48.106;11.546;2023-03-21T04:25:32;7.70;99.90
27200;DHT22;14714;48.106;11.546;2023-03-21T04:28:00;7.80;99.90
27200;DHT22;14714;48.106;11.546;2023-03-21T04:30:27;7.80;99.90
27200;DHT22;14714;48.106;11.546;2023-03-21T04:32:53;7.80;99.90
27200;DHT22;14714;48.106;11.546;2023-03-21T04:35:22;7.80;99.90
27200;DHT22;14714;48.106;11.546;2023-03-21T04:37:50;7.80;99.90
27200;DHT22;14714;48.106;11.546;2023-03-21T04:40:17;7.70;99.90
27200;DHT22;14714;48.106;11.546;2023-03-21T04:42:45;7.70;99.90
27200;DHT22;14714;48.106;11.546;2023-03-21T04:45:12;7.70;99.90
27200;DHT22;14714;48.106;11.546;2023-03-21T04:47:39;7.70;99.90
27200;DHT22;14714;48.106;11.546;2023-03-21T04:50:07;7.70;99.90
27200;DHT22;14714;48.106;11.546;2023-03-21T04:52:34;7.70;99.90
27200;DHT22;14714;48.106;11.546;2023-03-21T04:55:01;7.70;99.90
27200;DHT22;14714;48.106;11.546;2023-03-21T04:57:28;7.60;99.90
27200;DHT22;14714;48.106;11.546;2023-03-21T04:59:54;7.60;99.90
27200;DHT22;14714;48.106;11.546;2023-03-21T05:02:21;7.60;99.90
27200;DHT22;14714;48.106;11.546;2023-03-21T05:04:48;7.60;99.90
27200;DHT22;14714;48.106;11.546;2023-03-21T05:07:14;7.60;99.90
27200;DHT22;14714;48.106;11.546;2023-03-21T05:09:41;7.50;99.90
27200;DHT22;14714;48.106;11.546;2023-03-21T05:12:08;7.60;99.90
27200;DHT22;14714;48.106;11.546;2023-03-21T05:14:34;7.50;99.90
27200;DHT22;14714;48.106;11.546;2023-03-21T05:17:01;7.50;99.90
27200;DHT22;14714;48.106;11.546;2023-03-21T05:19:31;7.50;99.90
27200;DHT22;14714;48.106;11.546;2023-03-21T05:22:05;7.50;99.90
27200;DHT22;14714;48.106;11.546;2023-03-21T05:24:32;7.50;99.90
27200;DHT22;14714;48.106;11.546;2023-03-21T05:26:59;7.50;99.90
27200;DHT22;14714;48.106;11.546;2023-03-21T05:29:28;7.50;99.90
27200;DHT22;14714;48.106;11.546;2023-03-21T05:31:55;7.50;99.90
27200;DHT22;14714;48.106;11.546;2023-03-21T05:34:23;7.50;99.90
27200;DHT22;14714;48.106;11.546;2023-03-21T05:36:50;7.50;99.90
27200;DHT22;14714;48.106;11.546;2023-03-21T05:39:17;7.60;99.90
27200;DHT22;14714;48.106;11.546;2023-03-21T05:41:44;7.60;99.90
27200;DHT22;14714;48.106;11.546;2023-03-21T05:44:10;7.60;99.90
27200;DHT22;14714;48.106;11.546;2023-03-21T05:46:37;7.60;99.90
27200;DHT22;14714;48.106;11.546;2023-03-21T05:49:04;7.70;99.90
27200;DHT22;14714;48.106;11.546;2023-03-21T05:51:30;7.70;99.90
27200;DHT22;14714;48.106;11.546;2023-03-21T05:53:57;7.70;99.90
27200;DHT22;14714;48.106;11.546;2023-03-21T05:56:24;7.80;99.90
27200;DHT22;14714;48.106;11.546;2023-03-21T05:58:50;7.80;99.90
27200;DHT22;14714;48.106;11.546;2023-03-21T06:01:17;7.90;99.90
27200;DHT22;14714;48.106;11.546;2023-03-21T06:03:44;7.90;99.90
27200;DHT22;14714;48.106;11.546;2023-03-21T06:06:11;8.00;99.90
27200;DHT22;14714;48.106;11.546;2023-03-21T06:08:37;8.00;99.90
27200;DHT22;14714;48.106;11.546;2023-03-21T06:11:16;8.10;99.90
27200;DHT22;14714;48.106;11.546;2023-03-21T06:13:44;8.20;99.90
27200;DHT22;14714;48.106;11.546;2023-03-21T06:16:11;8.30;99.90
27200;DHT22;14714;48.106;11.546;2023-03-21T06:18:38;8.40;99.90
27200;DHT22;14714;48.106;11.546;2023-03-21T06:21:05;8.40;99.90
27200;DHT22;14714;48.106;11.546;2023-03-21T06:23:31;8.60;99.90
27200;DHT22;14714;48.106;11.546;2023-03-21T06:25:58;8.70;99.90
27200;DHT22;14714;48.106;11.546;2023-03-21T06:28:25;8.80;99.90
27200;DHT22;14714;48.106;11.546;2023-03-21T06:30:52;8.90;99.90
27200;DHT22;14714;48.106;11.546;2023-03-21T06:33:18;9.00;99.90
27200;DHT22;14714;48.106;11.546;2023-03-21T06:35:52;9.10;99.90
27200;DHT22;14714;48.106;11.546;2023-03-21T06:38:19;9.20;99.90
27200;DHT22;14714;48.106;11.546;2023-03-21T06:40:46;9.30;99.90
27200;DHT22;14714;48.106;11.546;2023-03-21T06:43:13;9.40;99.90
27200;DHT22;14714;48.106;11.546;2023-03-21T06:45:39;9.50;99.90
27200;DHT22;14714;48.106;11.546;2023-03-21T06:48:06;9.50;99.90
27200;DHT22;14714;48.106;11.546;2023-03-21T06:50:34;9.60;99.90
27200;DHT22;14714;48.106;11.546;2023-03-21T06:53:01;9.70;99.90
27200;DHT22;14714;48.106;11.546;2023-03-21T06:55:28;9.70;99.90
27200;DHT22;14714;48.106;11.546;2023-03-21T06:57:55;9.80;99.90
27200;DHT22;14714;48.106;11.546;2023-03-21T07:00:22;9.80;99.90
27200;DHT22;14714;48.106;11.546;2023-03-21T07:02:49;9.90;99.90
27200;DHT22;14714;48.106;11.546;2023-03-21T07:05:16;9.90;99.90
27200;DHT22;14714;48.106;11.546;2023-03-21T07:07:43;10.00;99.90
27200;DHT22;14714;48.106;11.546;2023-03-21T07:10:10;10.10;99.90
27200;DHT22;14714;48.106;11.546;2023-03-21T07:12:37;10.10;99.90
27200;DHT22;14714;48.106;11.546;2023-03-21T07:15:04;10.20;99.90
27200;DHT22;14714;48.106;11.546;2023-03-21T07:17:32;10.30;99.90
27200;DHT22;14714;48.106;11.546;2023-03-21T07:19:58;10.40;99.90
27200;DHT22;14714;48.106;11.546;2023-03-21T07:22:25;10.50;99.90
27200;DHT22;14714;48.106;11.546;2023-03-21T07:24:52;10.60;99.90
27200;DHT22;14714;48.106;11.546;2023-03-21T07:27:30;10.70;99.90
27200;DHT22;14714;48.106;11.546;2023-03-21T07:29:57;10.80;99.90
27200;DHT22;14714;48.106;11.546;2023-03-21T07:32:24;10.90;99.90
27200;DHT22;14714;48.106;11.546;2023-03-21T07:34:55;11.00;99.90
27200;DHT22;14714;48.106;11.546;2023-03-21T07:37:22;11.10;99.90
27200;DHT22;14714;48.106;11.546;2023-03-21T07:39:49;11.20;99.90
27200;DHT22;14714;48.106;11.546;2023-03-21T07:42:17;11.30;99.90
27200;DHT22;14714;48.106;11.546;2023-03-21T07:44:43;11.40;99.90
27200;DHT22;14714;48.106;11.546;2023-03-21T07:47:10;11.40;99.90
27200;DHT22;14714;48.106;11.546;2023-03-21T07:49:37;11.50;99.90
27200;DHT22;14714;48.106;11.546;2023-03-21T07:52:03;11.60;99.90
27200;DHT22;14714;48.106;11.546;2023-03-21T07:54:30;11.60;99.90
27200;DHT22;14714;48.106;11.546;2023-03-21T07:56:57;11.60;99.90
27200;DHT22;14714;48.106;11.546;2023-03-21T07:59:24;11.60;99.90
27200;DHT22;14714;48.106;11.546;2023-03-21T08:01:51;11.70;99.90
27200;DHT22;14714;48.106;11.546;2023-03-21T08:04:18;11.80;99.90
27200;DHT22;14714;48.106;11.546;2023-03-21T08:06:44;11.80;99.90
27200;DHT22;14714;48.106;11.546;2023-03-21T08:09:11;11.90;99.90
27200;DHT22;14714;48.106;11.546;2023-03-21T08:11:38;12.00;99.90
27200;DHT22;14714;48.106;11.546;2023-03-21T08:14:05;12.00;99.90
27200;DHT22;14714;48.106;11.546;2023-03-21T08:16:31;12.10;99.90
27200;DHT22;14714;48.106;11.546;2023-03-21T08:18:58;12.10;99.90
27200;DHT22;14714;48.106;11.546;2023-03-21T08:21:25;12.20;99.90
27200;DHT22;14714;48.106;11.546;2023-03-21T08:23:52;12.20;99.90
27200;DHT22;14714;48.106;11.546;2023-03-21T08:26:18;12.30;99.90
27200;DHT22;14714;48.106;11.546;2023-03-21T08:28:45;12.40;99.90
27200;DHT22;14714;48.106;11.546;2023-03-21T08:31:12;12.50;99.90
27200;DHT22;14714;48.106;11.546;2023-03-21T08:33:39;12.60;99.90
27200;DHT22;14714;48.106;11.546;2023-03-21T08:36:06;12.70;99.90
27200;DHT22;14714;48.106;11.546;2023-03-21T08:38:32;12.80;99.90
27200;DHT22;14714;48.106;11.546;2023-03-21T08:41:00;12.90;99.90
27200;DHT22;14714;48.106;11.546;2023-03-21T08:43:27;13.10;99.90
27200;DHT22;14714;48.106;11.546;2023-03-21T08:45:54;13.10;99.90
27200;DHT22;14714;48.106;11.546;2023-03-21T08:48:22;13.20;99.90
27200;DHT22;14714;48.106;11.546;2023-03-21T08:50:48;13.30;99.90
27200;DHT22;14714;48.106;11.546;2023-03-21T08:53:15;13.40;99.90
27200;DHT22;14714;48.106;11.546;2023-03-21T08:55:42;13.50;99.90
27200;DHT22;14714;48.106;11.546;2023-03-21T08:58:09;13.60;99.90
27200;DHT22;14714;48.106;11.546;2023-03-21T09:00:36;13.70;99.90
27200;DHT22;14714;48.106;11.546;2023-03-21T09:03:03;13.80;99.90
27200;DHT22;14714;48.106;11.546;2023-03-21T09:05:30;13.90;99.90
27200;DHT22;14714;48.106;11.546;2023-03-21T09:07:57;14.00;99.90
27200;DHT22;14714;48.106;11.546;2023-03-21T09:10:24;14.10;99.90
27200;DHT22;14714;48.106;11.546;2023-03-21T09:12:51;14.10;99.90
27200;DHT22;14714;48.106;11.546;2023-03-21T09:15:19;14.10;99.90
27200;DHT22;14714;48.106;11.546;2023-03-21T09:17:47;14.10;99.90
27200;DHT22;14714;48.106;11.546;2023-03-21T09:20:18;14.20;99.90
27200;DHT22;14714;48.106;11.546;2023-03-21T09:22:47;14.30;99.90
27200;DHT22;14714;48.106;11.546;2023-03-21T09:25:14;14.30;99.90
27200;DHT22;14714;48.106;11.546;2023-03-21T09:27:41;14.40;99.90
27200;DHT22;14714;48.106;11.546;2023-03-21T09:30:11;14.40;99.90
27200;DHT22;14714;48.106;11.546;2023-03-21T09:32:39;14.50;99.90
27200;DHT22;14714;48.106;11.546;2023-03-21T09:35:05;14.60;99.90
27200;DHT22;14714;48.106;11.546;2023-03-21T09:37:33;14.70;99.80
27200;DHT22;14714;48.106;11.546;2023-03-21T09:40:03;14.90;99.00
27200;DHT22;14714;48.106;11.546;2023-03-21T09:42:39;15.00;98.50
27200;DHT22;14714;48.106;11.546;2023-03-21T09:47:48;15.20;97.10
27200;DHT22;14714;48.106;11.546;2023-03-21T09:50:23;15.30;96.40
27200;DHT22;14714;48.106;11.546;2023-03-21T09:53:07;15.50;95.90
27200;DHT22;14714;48.106;11.546;2023-03-21T09:55:35;15.70;95.70
27200;DHT22;14714;48.106;11.546;2023-03-21T09:58:04;15.90;94.90
27200;DHT22;14714;48.106;11.546;2023-03-21T10:00:34;16.10;94.30
27200;DHT22;14714;48.106;11.546;2023-03-21T10:03:02;16.20;93.70
27200;DHT22;14714;48.106;11.546;2023-03-21T10:05:32;16.30;92.50
27200;DHT22;14714;48.106;11.546;2023-03-21T10:08:07;16.40;91.60
27200;DHT22;14714;48.106;11.546;2023-03-21T10:10:35;16.50;90.70
27200;DHT22;14714;48.106;11.546;2023-03-21T10:13:05;16.50;90.20
27200;DHT22;14714;48.106;11.546;2023-03-21T10:15:36;16.60;90.90
27200;DHT22;14714;48.106;11.546;2023-03-21T10:18:06;16.80;90.50
27200;DHT22;14714;48.106;11.546;2023-03-21T10:20:34;17.10;89.90
27200;DHT22;14714;48.106;11.546;2023-03-21T10:23:03;17.40;89.20
27200;DHT22;14714;48.106;11.546;2023-03-21T10:25:34;17.50;85.80
27200;DHT22;14714;48.106;11.546;2023-03-21T10:28:03;17.60;85.20
27200;DHT22;14714;48.106;11.546;2023-03-21T10:33:05;17.90;80.10
27200;DHT22;14714;48.106;11.546;2023-03-21T10:35:35;17.90;79.00
27200;DHT22;14714;48.106;11.546;2023-03-21T10:38:03;18.00;80.20
27200;DHT22;14714;48.106;11.546;2023-03-21T10:40:30;18.20;79.50
27200;DHT22;14714;48.106;11.546;2023-03-21T10:45:44;18.50;76.70
27200;DHT22;14714;48.106;11.546;2023-03-21T10:48:11;18.70;76.00
27200;DHT22;14714;48.106;11.546;2023-03-21T10:50:38;18.90;75.70
27200;DHT22;14714;48.106;11.546;2023-03-21T10:53:05;19.10;72.10
27200;DHT22;14714;48.106;11.546;2023-03-21T10:55:40;19.10;73.60
27200;DHT22;14714;48.106;11.546;2023-03-21T10:58:08;19.10;73.70
27200;DHT22;14714;48.106;11.546;2023-03-21T11:00:37;19.40;73.70
27200;DHT22;14714;48.106;11.546;2023-03-21T11:03:05;19.60;70.50
27200;DHT22;14714;48.106;11.546;2023-03-21T11:05:33;19.70;68.20
27200;DHT22;14714;48.106;11.546;2023-03-21T11:08:16;19.60;67.10
27200;DHT22;14714;48.106;11.546;2023-03-21T11:11:02;19.50;65.40
27200;DHT22;14714;48.106;11.546;2023-03-21T11:13:37;19.40;66.60
27200;DHT22;14714;48.106;11.546;2023-03-21T11:16:08;19.50;67.90
27200;DHT22;14714;48.106;11.546;2023-03-21T11:18:42;19.80;68.10
27200;DHT22;14714;48.106;11.546;2023-03-21T11:21:09;20.10;68.10
27200;DHT22;14714;48.106;11.546;2023-03-21T11:23:44;20.50;65.50
27200;DHT22;14714;48.106;11.546;2023-03-21T11:26:47;20.80;64.10
27200;DHT22;14714;48.106;11.546;2023-03-21T11:31:58;20.80;61.90
27200;DHT22;14714;48.106;11.546;2023-03-21T11:34:30;20.90;61.80
27200;DHT22;14714;48.106;11.546;2023-03-21T11:36:58;21.00;61.40
27200;DHT22;14714;48.106;11.546;2023-03-21T11:39:28;20.90;59.30
27200;DHT22;14714;48.106;11.546;2023-03-21T11:41:56;20.60;59.10
27200;DHT22;14714;48.106;11.546;2023-03-21T11:44:34;20.30;59.40
27200;DHT22;14714;48.106;11.546;2023-03-21T11:47:01;20.00;61.40
27200;DHT22;14714;48.106;11.546;2023-03-21T11:49:27;19.70;60.80
27200;DHT22;14714;48.106;11.546;2023-03-21T11:52:00;19.40;63.00
27200;DHT22;14714;48.106;11.546;2023-03-21T12:02:34;18.90;63.80
27200;DHT22;14714;48.106;11.546;2023-03-21T12:05:10;18.80;66.40
27200;DHT22;14714;48.106;11.546;2023-03-21T12:07:57;18.60;65.90
27200;DHT22;14714;48.106;11.546;2023-03-21T12:10:47;18.30;68.80
27200;DHT22;14714;48.106;11.546;2023-03-21T12:13:20;18.00;68.30
27200;DHT22;14714;48.106;11.546;2023-03-21T12:24:04;17.30;68.00
27200;DHT22;14714;48.106;11.546;2023-03-21T12:26:35;17.30;69.10
27200;DHT22;14714;48.106;11.546;2023-03-21T12:35:03;17.10;70.90
27200;DHT22;14714;48.106;11.546;2023-03-21T12:37:17;17.10;68.80
27200;DHT22;14714;48.106;11.546;2023-03-21T12:39:47;16.90;67.50
27200;DHT22;14714;48.106;11.546;2023-03-21T12:44:44;16.80;68.40
27200;DHT22;14714;48.106;11.546;2023-03-21T12:47:12;16.80;68.90
27200;DHT22;14714;48.106;11.546;2023-03-21T12:49:42;16.80;68.50
27200;DHT22;14714;48.106;11.546;2023-03-21T12:52:13;16.80;67.50
27200;DHT22;14714;48.106;11.546;2023-03-21T12:54:51;16.80;66.90
27200;DHT22;14714;48.106;11.546;2023-03-21T12:57:20;16.80;66.70
27200;DHT22;14714;48.106;11.546;2023-03-21T13:05:03;17.20;66.50
27200;DHT22;14714;48.106;11.546;2023-03-21T13:07:38;17.40;64.70
27200;DHT22;14714;48.106;11.546;2023-03-21T13:10:17;17.60;64.60
27200;DHT22;14714;48.106;11.546;2023-03-21T13:15:21;18.00;63.90
27200;DHT22;14714;48.106;11.546;2023-03-21T13:17:58;18.30;62.00
27200;DHT22;14714;48.106;11.546;2023-03-21T13:22:54;18.50;61.20
27200;DHT22;14714;48.106;11.546;2023-03-21T13:25:21;18.50;61.40
27200;DHT22;14714;48.106;11.546;2023-03-21T13:27:52;18.50;61.50
27200;DHT22;14714;48.106;11.546;2023-03-21T13:30:23;18.50;61.90
27200;DHT22;14714;48.106;11.546;2023-03-21T13:35:39;18.60;59.10
27200;DHT22;14714;48.106;11.546;2023-03-21T13:38:10;18.70;61.30
27200;DHT22;14714;48.106;11.546;2023-03-21T13:40:40;18.80;61.20
27200;DHT22;14714;48.106;11.546;2023-03-21T13:45:54;19.00;59.60
27200;DHT22;14714;48.106;11.546;2023-03-21T13:48:28;19.00;58.00
27200;DHT22;14714;48.106;11.546;2023-03-21T13:51:02;19.00;57.40
27200;DHT22;14714;48.106;11.546;2023-03-21T13:53:30;19.00;57.90
27200;DHT22;14714;48.106;11.546;2023-03-21T13:55:58;19.00;57.60
27200;DHT22;14714;48.106;11.546;2023-03-21T13:58:32;19.00;58.10
27200;DHT22;14714;48.106;11.546;2023-03-21T14:01:03;19.00;58.90
27200;DHT22;14714;48.106;11.546;2023-03-21T14:03:33;19.00;59.80
27200;DHT22;14714;48.106;11.546;2023-03-21T14:06:00;18.90;58.50
27200;DHT22;14714;48.106;11.546;2023-03-21T14:08:27;18.90;59.10
27200;DHT22;14714;48.106;11.546;2023-03-21T14:11:04;19.00;58.90
27200;DHT22;14714;48.106;11.546;2023-03-21T14:13:31;19.00;59.00
27200;DHT22;14714;48.106;11.546;2023-03-21T14:16:11;19.00;60.20
27200;DHT22;14714;48.106;11.546;2023-03-21T14:18:45;19.00;59.40
27200;DHT22;14714;48.106;11.546;2023-03-21T14:21:22;18.90;59.20
27200;DHT22;14714;48.106;11.546;2023-03-21T14:23:57;18.80;60.20
27200;DHT22;14714;48.106;11.546;2023-03-21T14:26:25;18.70;58.80
27200;DHT22;14714;48.106;11.546;2023-03-21T14:28:52;18.70;57.70
27200;DHT22;14714;48.106;11.546;2023-03-21T14:31:19;18.50;59.00
27200;DHT22;14714;48.106;11.546;2023-03-21T14:33:50;18.30;59.10
27200;DHT22;14714;48.106;11.546;2023-03-21T14:36:23;18.10;59.20
27200;DHT22;14714;48.106;11.546;2023-03-21T14:39:01;17.80;60.20
27200;DHT22;14714;48.106;11.546;2023-03-21T14:41:29;17.70;61.60
27200;DHT22;14714;48.106;11.546;2023-03-21T14:46:42;17.40;62.60
27200;DHT22;14714;48.106;11.546;2023-03-21T14:49:20;17.40;61.40
27200;DHT22;14714;48.106;11.546;2023-03-21T14:51:49;17.20;62.50
27200;DHT22;14714;48.106;11.546;2023-03-21T14:54:16;17.10;61.30
27200;DHT22;14714;48.106;11.546;2023-03-21T14:56:45;17.00;60.70
27200;DHT22;14714;48.106;11.546;2023-03-21T14:59:14;17.00;62.20
27200;DHT22;14714;48.106;11.546;2023-03-21T15:01:41;16.90;64.40
27200;DHT22;14714;48.106;11.546;2023-03-21T15:04:11;16.90;62.40
27200;DHT22;14714;48.106;11.546;2023-03-21T15:06:49;16.80;63.50
27200;DHT22;14714;48.106;11.546;2023-03-21T15:09:17;16.70;64.10
27200;DHT22;14714;48.106;11.546;2023-03-21T15:11:48;16.60;63.70
27200;DHT22;14714;48.106;11.546;2023-03-21T15:14:15;16.50;63.90
27200;DHT22;14714;48.106;11.546;2023-03-21T15:16:42;16.40;64.30
27200;DHT22;14714;48.106;11.546;2023-03-21T15:19:09;16.40;65.10
27200;DHT22;14714;48.106;11.546;2023-03-21T15:21:40;16.30;65.80
27200;DHT22;14714;48.106;11.546;2023-03-21T15:24:14;16.30;66.00
27200;DHT22;14714;48.106;11.546;2023-03-21T15:26:43;16.30;67.00
27200;DHT22;14714;48.106;11.546;2023-03-21T15:29:10;16.30;66.50
27200;DHT22;14714;48.106;11.546;2023-03-21T15:31:38;16.30;67.10
27200;DHT22;14714;48.106;11.546;2023-03-21T15:34:05;16.30;66.20
27200;DHT22;14714;48.106;11.546;2023-03-21T15:36:36;16.30;67.60
27200;DHT22;14714;48.106;11.546;2023-03-21T15:39:11;16.30;67.00
27200;DHT22;14714;48.106;11.546;2023-03-21T15:41:39;16.20;67.80
27200;DHT22;14714;48.106;11.546;2023-03-21T15:51:34;16.00;68.80
27200;DHT22;14714;48.106;11.546;2023-03-21T15:54:01;15.90;69.70
27200;DHT22;14714;48.106;11.546;2023-03-21T15:56:31;15.90;70.00
27200;DHT22;14714;48.106;11.546;2023-03-21T15:59:01;15.90;70.80
27200;DHT22;14714;48.106;11.546;2023-03-21T16:01:31;15.90;70.80
27200;DHT22;14714;48.106;11.546;2023-03-21T16:04:18;15.90;71.40
27200;DHT22;14714;48.106;11.546;2023-03-21T16:09:23;15.80;71.50
27200;DHT22;14714;48.106;11.546;2023-03-21T16:14:17;15.60;72.60
27200;DHT22;14714;48.106;11.546;2023-03-21T16:16:45;15.50;72.80
27200;DHT22;14714;48.106;11.546;2023-03-21T16:19:12;15.50;73.10
27200;DHT22;14714;48.106;11.546;2023-03-21T16:21:39;15.40;72.70
27200;DHT22;14714;48.106;11.546;2023-03-21T16:24:08;15.40;73.70
27200;DHT22;14714;48.106;11.546;2023-03-21T16:26:40;15.40;74.10
27200;DHT22;14714;48.106;11.546;2023-03-21T16:29:07;15.30;74.50
27200;DHT22;14714;48.106;11.546;2023-03-21T16:31:34;15.30;75.00
27200;DHT22;14714;48.106;11.546;2023-03-21T16:34:02;15.20;75.30
27200;DHT22;14714;48.106;11.546;2023-03-21T16:36:31;15.20;75.60
27200;DHT22;14714;48.106;11.546;2023-03-21T16:38:58;15.10;76.00
27200;DHT22;14714;48.106;11.546;2023-03-21T16:41:25;15.00;75.80
27200;DHT22;14714;48.106;11.546;2023-03-21T16:43:53;15.00;75.60
27200;DHT22;14714;48.106;11.546;2023-03-21T16:46:23;15.00;76.30
27200;DHT22;14714;48.106;11.546;2023-03-21T16:48:52;14.90;76.40
27200;DHT22;14714;48.106;11.546;2023-03-21T16:51:19;14.90;76.90
27200;DHT22;14714;48.106;11.546;2023-03-21T16:53:47;14.90;77.20
27200;DHT22;14714;48.106;11.546;2023-03-21T16:56:24;14.80;77.60
27200;DHT22;14714;48.106;11.546;2023-03-21T16:58:55;14.80;77.30
27200;DHT22;14714;48.106;11.546;2023-03-21T17:01:22;14.70;77.30
27200;DHT22;14714;48.106;11.546;2023-03-21T17:03:53;14.70;78.20
27200;DHT22;14714;48.106;11.546;2023-03-21T17:06:20;14.70;77.90
27200;DHT22;14714;48.106;11.546;2023-03-21T17:08:47;14.60;78.40
27200;DHT22;14714;48.106;11.546;2023-03-21T17:11:15;14.60;78.30
27200;DHT22;14714;48.106;11.546;2023-03-21T17:13:42;14.60;78.40